CMH weather

John Glenn Columbus International Airport
Columbus, Ohio, United States

Public forecast

Using degrees Fahrenheit for public forecast. Weather courtesy of forecast.io.

Current aviation weather report (METAR) for John Glenn Columbus International Airport

Retrieved 2019/11/21 19:51 UTC (1 hour ago):

KCMH 211951Z 18010KT 9SM BKN090 12/03 A2994 RMK AO2 RAB1854E05 SLP140 P0000 T01170028

Aviation forecast (TAF) for John Glenn Columbus International Airport

Retrieved 2019/11/21 18:54 UTC (2 hours ago):

TAF KCMH 211752Z 2118/2218 18012G22KT P6SM OVC080 FM220100 23010G20KT P6SM VCSH OVC015 FM220600 25012KT P6SM OVC012 FM221000 31012KT P6SM OVC012